Time;durP1;ratioP1;P1;durP2;ratioP2;P2;SDS_P1;SDS_P2;PMS_P1;PMS_P2;Temp;Humidity;BMP_temperature;BMP_pressure;BME280_temperature;BME280_humidity;BME280_pressure;Samples;Min_cycle;Max_cycle;Signal;HPM_P1;HPM_P2
2023/05/25 00:00:14;;;;;;;4.77;2.40;;;7.50;1.00;;;;;;5091749;28;20200;-90
2023/05/25 00:02:41;;;;;;;5.07;2.50;;;7.40;1.00;;;;;;5074194;28;20177;-89
2023/05/25 00:05:08;;;;;;;5.23;2.87;;;7.50;99.90;;;;;;5074211;28;20174;-88
2023/05/25 00:07:34;;;;;;;4.93;2.63;;;7.40;99.90;;;;;;5073896;28;20292;-87
2023/05/25 00:09:59;;;;;;;6.60;2.60;;;7.40;1.10;;;;;;5088955;22;20352;-86
2023/05/25 00:12:25;;;;;;;4.00;2.60;;;7.60;1.00;;;;;;5072126;28;20169;-86
2023/05/25 00:14:50;;;;;;;4.37;2.50;;;7.70;99.90;;;;;;5054162;28;20171;-87
2023/05/25 00:17:17;;;;;;;3.17;2.30;;;7.70;1.00;;;;;;5053961;28;20189;-86
2023/05/25 00:19:43;;;;;;;6.30;2.60;;;7.70;1.00;;;;;;5053643;28;20278;-86
2023/05/25 00:22:10;;;;;;;5.63;3.00;;;7.50;1.00;;;;;;5072061;28;20205;-86
2023/05/25 00:24:36;;;;;;;5.13;2.63;;;7.30;27.40;;;;;;5054050;28;20646;-86
2023/05/25 00:27:02;;;;;;;6.70;2.67;;;7.20;1.00;;;;;;5054178;28;20293;-86
2023/05/25 00:29:28;;;;;;;4.53;2.40;;;7.10;99.90;;;;;;5053755;28;20277;-86
2023/05/25 00:31:54;;;;;;;4.63;2.60;;;7.20;1.00;;;;;;5071310;28;20194;-86
2023/05/25 00:34:20;;;;;;;6.43;2.53;;;7.10;99.90;;;;;;5053956;28;20165;-86
2023/05/25 00:36:47;;;;;;;4.80;2.87;;;7.10;99.90;;;;;;5053113;28;20177;-86
2023/05/25 00:39:14;;;;;;;5.23;2.70;;;7.10;99.90;;;;;;5071769;28;20181;-86
2023/05/25 00:41:44;;;;;;;4.03;2.37;;;7.20;99.90;;;;;;5053625;28;20181;-86
2023/05/25 00:44:14;;;;;;;5.00;2.93;;;7.30;99.90;;;;;;5053854;28;20173;-86
2023/05/25 00:46:50;;;;;;;4.80;2.60;;;7.40;99.90;;;;;;5053577;28;20214;-87
2023/05/25 00:49:21;;;;;;;5.43;2.90;;;7.40;1.00;;;;;;5053810;28;20205;-87
2023/05/25 00:51:47;;;;;;;5.40;2.70;;;7.50;99.90;;;;;;5053598;28;20177;-86
2023/05/25 00:54:17;;;;;;;4.87;2.43;;;7.40;1.00;;;;;;5054061;28;20177;-86
2023/05/25 00:56:50;;;;;;;5.77;2.50;;;7.50;1.00;;;;;;5071751;28;20173;-86
2023/05/25 00:59:26;;;;;;;5.40;2.60;;;7.50;99.90;;;;;;5071369;28;20178;-86
2023/05/25 01:01:53;;;;;;;3.40;2.33;;;7.50;99.90;;;;;;5057063;28;20550;-86
2023/05/25 01:04:22;;;;;;;5.33;2.50;;;7.40;17.70;;;;;;5057538;28;20173;-86
2023/05/25 01:06:49;;;;;;;4.60;2.70;;;7.30;1.00;;;;;;5057491;28;20197;-86
2023/05/25 01:09:18;;;;;;;3.80;2.47;;;7.30;99.90;;;;;;5074944;28;20682;-87
2023/05/25 01:11:48;;;;;;;5.63;2.47;;;7.20;99.90;;;;;;5074696;28;20184;-86
2023/05/25 01:14:18;;;;;;;4.00;2.50;;;7.20;1.00;;;;;;5057343;28;20165;-86
2023/05/25 01:16:44;;;;;;;4.13;2.57;;;7.20;55.10;;;;;;5057338;28;20209;-86
2023/05/25 01:19:09;;;;;;;3.93;2.77;;;7.30;1.00;;;;;;5057242;28;20201;-86
2023/05/25 01:21:58;;;;;;;5.10;2.80;;;7.20;99.90;;;;;;5056547;28;20173;-86
2023/05/25 01:24:31;;;;;;;3.63;2.50;;;7.30;99.90;;;;;;5057211;28;20223;-86
2023/05/25 01:27:12;;;;;;;6.63;2.53;;;7.40;1.00;;;;;;5057138;28;20208;-86
2023/05/25 01:29:41;;;;;;;4.33;2.60;;;7.50;1.00;;;;;;5074327;28;20212;-86
2023/05/25 01:32:07;;;;;;;4.37;2.43;;;7.50;99.90;;;;;;5057200;28;20170;-86
2023/05/25 01:34:34;;;;;;;3.13;2.20;;;7.40;1.00;;;;;;5074618;28;20160;-86
2023/05/25 01:37:00;;;;;;;4.60;2.50;;;7.50;1.00;;;;;;5056105;28;20180;-86
2023/05/25 01:39:26;;;;;;;4.17;2.47;;;7.30;1.00;;;;;;5074595;28;20188;-86
2023/05/25 01:41:51;;;;;;;4.27;2.50;;;7.10;1.00;;;;;;5074109;28;20560;-86
2023/05/25 01:44:17;;;;;;;5.80;2.60;;;7.00;1.00;;;;;;5056656;28;20217;-86
2023/05/25 01:46:43;;;;;;;4.53;2.50;;;6.90;99.90;;;;;;5056472;28;20198;-86
2023/05/25 01:49:18;;;;;;;4.13;2.50;;;6.90;1.00;;;;;;5056776;28;20195;-86
2023/05/25 01:51:54;;;;;;;2.77;2.23;;;6.80;1.00;;;;;;5056274;28;20246;-86
2023/05/25 01:54:23;;;;;;;3.80;2.50;;;6.90;99.90;;;;;;5074509;28;20169;-86
2023/05/25 01:56:50;;;;;;;4.47;2.57;;;7.00;1.00;;;;;;5056406;28;20294;-86
2023/05/25 01:59:19;;;;;;;4.43;2.40;;;7.00;1.00;;;;;;5074198;28;20231;-86
2023/05/25 02:01:46;;;;;;;3.67;2.57;;;7.10;1.00;;;;;;5073916;28;20190;-86
2023/05/25 02:04:11;;;;;;;4.30;2.70;;;7.00;99.90;;;;;;5074369;28;20205;-86
2023/05/25 02:06:38;;;;;;;4.97;2.70;;;6.80;1.00;;;;;;5056314;28;20235;-86
2023/05/25 02:09:03;;;;;;;3.93;2.60;;;6.80;99.90;;;;;;5056112;28;20169;-86
2023/05/25 02:11:29;;;;;;;3.73;2.60;;;6.70;99.90;;;;;;5054945;28;20176;-86
2023/05/25 02:13:54;;;;;;;4.30;2.30;;;6.90;99.90;;;;;;5055918;28;20185;-86
2023/05/25 02:16:20;;;;;;;3.73;2.33;;;6.70;1.00;;;;;;5056318;28;20223;-86
2023/05/25 02:18:46;;;;;;;4.33;2.73;;;6.70;99.90;;;;;;5074080;28;20566;-86
2023/05/25 02:21:12;;;;;;;4.40;2.60;;;6.90;99.90;;;;;;5055447;28;20193;-86
2023/05/25 02:23:37;;;;;;;3.97;2.60;;;6.80;99.90;;;;;;5074003;28;20265;-87
2023/05/25 02:26:03;;;;;;;4.07;2.50;;;6.90;1.00;;;;;;5055905;28;20218;-87
2023/05/25 02:28:28;;;;;;;3.97;2.33;;;6.80;1.00;;;;;;5055830;28;20215;-86
2023/05/25 02:30:54;;;;;;;5.27;2.80;;;6.70;1.00;;;;;;5073198;28;20202;-87
2023/05/25 02:33:20;;;;;;;5.57;2.67;;;6.80;1.00;;;;;;5055707;28;20607;-86
2023/05/25 02:35:45;;;;;;;3.67;2.33;;;6.70;1.00;;;;;;5056045;28;20169;-86
2023/05/25 02:38:11;;;;;;;5.73;2.87;;;6.70;1.00;;;;;;5054433;28;20177;-87
2023/05/25 02:40:36;;;;;;;3.13;2.60;;;6.60;99.90;;;;;;5072735;28;20197;-87
2023/05/25 02:43:02;;;;;;;4.83;2.90;;;6.70;60.90;;;;;;5055452;28;20187;-86
2023/05/25 02:45:28;;;;;;;5.43;2.70;;;6.70;1.00;;;;;;5055583;28;20212;-86
2023/05/25 02:47:53;;;;;;;3.93;2.93;;;6.50;1.00;;;;;;5073218;28;20225;-86
2023/05/25 02:50:19;;;;;;;4.43;3.03;;;6.50;99.90;;;;;;5072649;28;20196;-86
2023/05/25 02:52:44;;;;;;;4.70;2.90;;;6.60;1.00;;;;;;5055253;28;20192;-86
2023/05/25 02:55:12;;;;;;;5.87;2.60;;;6.70;1.00;;;;;;5055355;28;20173;-86
2023/05/25 02:57:38;;;;;;;4.53;2.60;;;6.70;99.90;;;;;;5055525;28;20180;-86
2023/05/25 03:00:06;;;;;;;3.47;2.50;;;6.40;1.00;;;;;;5054731;28;20189;-86
2023/05/25 03:02:32;;;;;;;3.83;2.40;;;6.40;99.90;;;;;;5055232;28;20226;-86
2023/05/25 03:04:58;;;;;;;4.83;2.73;;;6.40;1.00;;;;;;5072952;28;20560;-86
2023/05/25 03:07:26;;;;;;;3.57;2.20;;;6.40;99.90;;;;;;5072884;28;20239;-86
2023/05/25 03:09:52;;;;;;;5.70;2.40;;;6.10;58.40;;;;;;5072343;28;20427;-86
2023/05/25 03:12:18;;;;;;;4.07;2.90;;;6.30;99.90;;;;;;5072967;28;20667;-86
2023/05/25 03:14:43;;;;;;;5.33;2.83;;;6.50;1.00;;;;;;5055255;28;20180;-86
2023/05/25 03:17:09;;;;;;;5.47;2.90;;;6.40;1.00;;;;;;5072945;28;20180;-85
2023/05/25 03:19:35;;;;;;;5.10;3.00;;;6.10;1.00;;;;;;5072478;28;20192;-86
2023/05/25 03:22:02;;;;;;;3.97;2.67;;;6.00;1.00;;;;;;5072692;28;20169;-86
2023/05/25 03:24:28;;;;;;;3.90;2.80;;;5.90;1.00;;;;;;5054560;28;20172;-86
2023/05/25 03:26:54;;;;;;;4.10;2.40;;;5.90;1.00;;;;;;5072498;28;20215;-85
2023/05/25 03:29:20;;;;;;;3.87;2.43;;;5.90;1.00;;;;;;5054715;28;20193;-85
2023/05/25 03:31:46;;;;;;;3.37;2.47;;;5.90;1.00;;;;;;5054299;28;20197;-85
2023/05/25 03:34:11;;;;;;;5.07;2.50;;;5.90;1.00;;;;;;5054652;28;20215;-86
2023/05/25 03:36:37;;;;;;;4.20;2.70;;;6.00;1.00;;;;;;5053244;28;20229;-86
2023/05/25 03:39:04;;;;;;;4.10;2.57;;;6.00;1.00;;;;;;5054776;28;20183;-86
2023/05/25 03:41:30;;;;;;;4.67;2.70;;;6.10;1.00;;;;;;5054137;28;20646;-86
2023/05/25 03:43:55;;;;;;;3.73;2.50;;;6.20;1.00;;;;;;5054540;28;20188;-86
2023/05/25 03:46:21;;;;;;;3.60;2.50;;;6.20;1.00;;;;;;5054405;28;20222;-86
2023/05/25 03:48:46;;;;;;;3.43;2.67;;;6.10;99.90;;;;;;5054302;28;20175;-86
2023/05/25 03:51:12;;;;;;;4.40;2.60;;;6.00;1.00;;;;;;5054069;28;20665;-86
2023/05/25 03:53:38;;;;;;;4.13;2.60;;;6.00;1.00;;;;;;5054659;28;20194;-86
2023/05/25 03:56:03;;;;;;;3.40;2.77;;;6.00;1.00;;;;;;5072261;28;20176;-86
2023/05/25 03:58:29;;;;;;;3.73;2.80;;;6.10;1.00;;;;;;5054326;28;20206;-86
2023/05/25 04:00:55;;;;;;;5.27;3.00;;;6.20;1.00;;;;;;5053570;28;20196;-86
2023/05/25 04:03:21;;;;;;;3.30;2.60;;;6.00;1.00;;;;;;5054131;28;20183;-86
2023/05/25 04:05:46;;;;;;;5.07;2.70;;;6.00;1.00;;;;;;5054362;28;20175;-80
2023/05/25 04:08:19;;;;;;;3.27;2.60;;;5.90;1.00;;;;;;5054789;28;20422;-81
2023/05/25 04:10:45;;;;;;;3.47;2.63;;;6.00;1.00;;;;;;5054233;28;20212;-80
2023/05/25 04:13:11;;;;;;;3.70;2.60;;;6.00;1.00;;;;;;5054913;28;20176;-80
2023/05/25 04:15:37;;;;;;;3.00;2.60;;;6.00;1.00;;;;;;5054911;28;20168;-81
2023/05/25 04:18:03;;;;;;;4.50;2.57;;;5.90;1.00;;;;;;5073041;28;20236;-80
2023/05/25 04:20:29;;;;;;;3.50;2.80;;;6.00;1.00;;;;;;5054859;28;20220;-82
2023/05/25 04:22:55;;;;;;;5.30;2.63;;;5.90;12.20;;;;;;5072764;28;20206;-81
2023/05/25 04:25:21;;;;;;;5.67;2.63;;;6.00;1.00;;;;;;5072684;28;20195;-83
2023/05/25 04:27:47;;;;;;;5.13;2.80;;;6.00;27.70;;;;;;5072635;28;20222;-81
2023/05/25 04:30:13;;;;;;;3.57;2.57;;;6.00;99.90;;;;;;5071984;28;20198;-85
2023/05/25 04:32:39;;;;;;;4.23;2.90;;;6.10;99.90;;;;;;5072568;28;20173;-82
2023/05/25 04:35:05;;;;;;;3.87;2.80;;;6.50;99.90;;;;;;5055682;28;20271;-81
2023/05/25 04:37:32;;;;;;;3.60;2.60;;;6.70;99.90;;;;;;5075623;28;20205;-81
2023/05/25 04:39:58;;;;;;;4.53;3.10;;;6.60;1.00;;;;;;5076811;28;20218;-82
2023/05/25 04:42:24;;;;;;;4.10;3.17;;;6.70;16.20;;;;;;5058507;28;20176;-83
2023/05/25 04:44:54;;;;;;;5.30;2.80;;;6.90;34.70;;;;;;5058362;28;20190;-81
2023/05/25 04:47:20;;;;;;;4.57;3.17;;;6.90;1.00;;;;;;5058339;28;20746;-81
2023/05/25 04:49:46;;;;;;;7.03;3.83;;;6.80;1.00;;;;;;5057484;28;20184;-81
2023/05/25 04:52:12;;;;;;;7.10;4.10;;;6.70;99.90;;;;;;5076554;28;20330;-82
2023/05/25 04:54:37;;;;;;;4.83;3.70;;;6.70;99.90;;;;;;5076544;28;20238;-81
2023/05/25 04:57:03;;;;;;;6.37;3.33;;;6.90;99.90;;;;;;5058495;28;20212;-80
2023/05/25 04:59:29;;;;;;;5.43;3.67;;;7.00;99.90;;;;;;5076627;28;20262;-83
2023/05/25 05:01:55;;;;;;;5.53;3.53;;;6.90;99.90;;;;;;5058461;28;20601;-81
2023/05/25 05:04:20;;;;;;;4.77;3.03;;;6.90;99.90;;;;;;5058360;28;20169;-81
2023/05/25 05:06:46;;;;;;;4.47;3.67;;;7.00;99.90;;;;;;5058342;28;20200;-81
2023/05/25 05:09:12;;;;;;;4.43;3.57;;;7.00;99.90;;;;;;5058404;28;20172;-80
2023/05/25 05:11:37;;;;;;;7.07;4.00;;;7.10;99.90;;;;;;5058483;28;20208;-81
2023/05/25 05:14:03;;;;;;;5.60;4.30;;;7.20;99.90;;;;;;5077008;28;20182;-81
2023/05/25 05:16:32;;;;;;;6.90;4.27;;;7.40;99.90;;;;;;5059584;28;20214;-81
2023/05/25 05:18:58;;;;;;;6.53;4.10;;;7.40;99.90;;;;;;5077156;28;20214;-79
2023/05/25 05:21:24;;;;;;;8.30;4.00;;;7.50;99.90;;;;;;5059451;28;20169;-80
2023/05/25 05:23:50;;;;;;;7.83;4.47;;;7.50;99.90;;;;;;5060615;28;20196;-80
2023/05/25 05:26:15;;;;;;;4.83;4.10;;;7.50;99.90;;;;;;5078008;28;20214;-80
2023/05/25 05:28:41;;;;;;;6.40;4.53;;;7.50;99.90;;;;;;5077936;28;20644;-82
2023/05/25 05:31:07;;;;;;;6.03;4.37;;;7.60;99.90;;;;;;5059248;28;20189;-80
2023/05/25 05:33:32;;;;;;;9.13;4.60;;;7.60;99.90;;;;;;5077408;28;20252;-80
2023/05/25 05:36:00;;;;;;;7.90;4.50;;;7.70;99.90;;;;;;5075874;28;20173;-82
2023/05/25 05:38:25;;;;;;;8.57;4.77;;;7.70;99.90;;;;;;5057681;28;20170;-82
2023/05/25 05:40:51;;;;;;;6.70;4.60;;;7.80;99.90;;;;;;5074994;28;20199;-81
2023/05/25 05:43:17;;;;;;;8.80;4.83;;;7.90;99.90;;;;;;5077879;28;20227;-81
2023/05/25 05:45:42;;;;;;;7.20;4.60;;;8.00;99.90;;;;;;5059092;28;20177;-81
2023/05/25 05:48:13;;;;;;;8.77;5.17;;;8.00;99.90;;;;;;5059619;28;20668;-81
2023/05/25 05:50:39;;;;;;;8.20;5.20;;;8.10;99.90;;;;;;5076893;28;20218;-79
2023/05/25 05:53:05;;;;;;;9.80;4.80;;;8.20;99.90;;;;;;5058873;28;20174;-80
2023/05/25 05:55:31;;;;;;;9.73;5.20;;;8.20;99.90;;;;;;5076600;28;20200;-83
2023/05/25 05:57:57;;;;;;;9.03;5.20;;;8.30;99.90;;;;;;5058679;28;20196;-79
2023/05/25 06:00:23;;;;;;;9.60;4.90;;;8.40;99.90;;;;;;5057797;28;20565;-82
2023/05/25 06:02:49;;;;;;;7.87;4.93;;;8.50;99.90;;;;;;5057557;28;20170;-81
2023/05/25 06:05:15;;;;;;;7.37;5.10;;;8.60;99.90;;;;;;5074844;28;20180;-82
2023/05/25 06:07:43;;;;;;;9.27;4.90;;;8.80;99.90;;;;;;5075268;28;20198;-81
2023/05/25 06:10:09;;;;;;;8.67;4.97;;;8.80;99.90;;;;;;5057678;28;20205;-82
2023/05/25 06:12:35;;;;;;;7.77;4.97;;;9.00;99.90;;;;;;5075550;28;20177;-81
2023/05/25 06:15:00;;;;;;;10.27;5.00;;;9.20;99.90;;;;;;5057191;28;20171;-79
2023/05/25 06:17:28;;;;;;;6.57;4.60;;;9.30;99.90;;;;;;5057164;28;20281;-82
2023/05/25 06:19:54;;;;;;;11.30;5.60;;;9.40;99.90;;;;;;5056157;28;20202;-80
2023/05/25 06:22:20;;;;;;;7.90;5.13;;;9.60;99.90;;;;;;5075593;28;20197;-84
2023/05/25 06:24:46;;;;;;;7.80;4.77;;;9.60;99.90;;;;;;5058556;28;20176;-79
2023/05/25 06:27:12;;;;;;;7.10;4.90;;;9.70;99.90;;;;;;5058638;28;20205;-80
2023/05/25 06:29:37;;;;;;;9.73;5.67;;;9.80;99.90;;;;;;5058693;28;20201;-79
2023/05/25 06:32:03;;;;;;;9.73;5.90;;;9.90;99.90;;;;;;5058598;28;20680;-78
2023/05/25 06:34:29;;;;;;;8.13;5.40;;;10.00;99.90;;;;;;5058254;28;20174;-80
2023/05/25 06:36:55;;;;;;;11.40;6.30;;;10.10;99.90;;;;;;5077123;28;20188;-79
2023/05/25 06:39:21;;;;;;;10.93;6.30;;;10.20;99.90;;;;;;5076377;28;20544;-79
2023/05/25 06:41:52;;;;;;;11.93;6.13;;;10.30;99.90;;;;;;5074681;28;20268;-83
2023/05/25 06:44:18;;;;;;;11.43;6.70;;;10.40;99.90;;;;;;5075475;28;20716;-80
2023/05/25 06:46:43;;;;;;;10.63;6.43;;;10.60;99.90;;;;;;5077974;28;20204;-80
2023/05/25 06:49:09;;;;;;;12.47;6.23;;;10.70;99.90;;;;;;5058157;28;20555;-80
2023/05/25 06:51:36;;;;;;;11.23;6.23;;;10.90;99.90;;;;;;5057338;28;20239;-80
2023/05/25 06:54:02;;;;;;;10.70;5.90;;;11.00;1.00;;;;;;5056993;28;20169;-81
2023/05/25 06:56:27;;;;;;;10.70;6.80;;;11.00;1.00;;;;;;5056526;28;20551;-80
2023/05/25 06:58:53;;;;;;;9.93;6.00;;;11.00;6.50;;;;;;5056832;28;20170;-81
2023/05/25 07:01:18;;;;;;;8.83;5.90;;;11.20;74.50;;;;;;5074676;28;20192;-80
2023/05/25 07:03:44;;;;;;;9.70;6.00;;;11.20;1.00;;;;;;5058217;28;20173;-81
2023/05/25 07:06:11;;;;;;;8.77;5.40;;;11.20;1.00;;;;;;5075428;28;20191;-81
2023/05/25 07:08:36;;;;;;;11.33;5.67;;;11.40;1.00;;;;;;5057465;28;20207;-81
2023/05/25 07:11:02;;;;;;;10.00;5.30;;;11.50;1.00;;;;;;5073146;28;20204;-81
2023/05/25 07:13:28;;;;;;;7.80;4.90;;;11.60;1.00;;;;;;5057361;28;20179;-81
2023/05/25 07:15:53;;;;;;;7.70;4.90;;;11.70;1.00;;;;;;5058008;28;20320;-82
2023/05/25 07:18:19;;;;;;;8.90;5.13;;;11.90;99.90;;;;;;5058177;28;20168;-80
2023/05/25 07:20:45;;;;;;;7.97;4.77;;;12.00;99.90;;;;;;5057271;28;20193;-80
2023/05/25 07:23:10;;;;;;;7.53;4.97;;;12.00;1.00;;;;;;5075366;28;20195;-81
2023/05/25 07:25:40;;;;;;;8.67;4.80;;;12.10;30.50;;;;;;5057408;28;20199;-81
2023/05/25 07:28:06;;;;;;;8.27;4.90;;;12.10;1.00;;;;;;5075189;28;20207;-81
2023/05/25 07:30:31;;;;;;;9.83;5.40;;;12.30;1.00;;;;;;5057153;28;20193;-81
2023/05/25 07:32:57;;;;;;;7.70;5.10;;;12.40;1.00;;;;;;5057658;28;20177;-80
2023/05/25 07:35:24;;;;;;;6.03;4.30;;;12.50;99.90;;;;;;5075618;28;20168;-81
2023/05/25 07:38:00;;;;;;;6.93;4.50;;;12.60;90.10;;;;;;5057363;28;20185;-80
2023/05/25 07:40:26;;;;;;;8.87;4.67;;;12.70;1.00;;;;;;5056825;28;20204;-80
2023/05/25 07:42:53;;;;;;;7.90;4.67;;;12.90;99.90;;;;;;5056809;28;20227;-81
2023/05/25 07:45:19;;;;;;;6.60;3.87;;;12.90;99.90;;;;;;5075079;28;20185;-82
2023/05/25 07:47:45;;;;;;;9.67;4.80;;;13.10;1.00;;;;;;5057176;28;20213;-80
2023/05/25 07:50:12;;;;;;;7.27;4.13;;;13.30;99.90;;;;;;5056183;28;20733;-81
2023/05/25 07:52:37;;;;;;;7.80;4.10;;;13.30;1.00;;;;;;5074405;28;20180;-80
2023/05/25 07:55:05;;;;;;;7.93;4.60;;;13.30;1.00;;;;;;5074771;28;20172;-80
2023/05/25 07:57:31;;;;;;;6.87;3.97;;;13.40;1.00;;;;;;5075211;28;20181;-80
2023/05/25 07:59:56;;;;;;;9.53;4.43;;;13.60;1.00;;;;;;5074130;28;20194;-80
2023/05/25 08:02:22;;;;;;;7.47;3.97;;;13.70;1.00;;;;;;5074652;28;20177;-81
2023/05/25 08:04:47;;;;;;;7.57;3.90;;;13.80;1.00;;;;;;5079154;28;20191;-81
2023/05/25 08:07:13;;;;;;;6.20;4.07;;;13.90;99.90;;;;;;5085564;28;20184;-81
2023/05/25 08:09:38;;;;;;;6.93;4.20;;;14.10;1.00;;;;;;5093905;28;20204;-80
2023/05/25 08:12:04;;;;;;;7.10;4.60;;;14.20;6.80;;;;;;5077121;28;20251;-82
2023/05/25 08:14:31;;;;;;;5.40;4.00;;;14.30;1.00;;;;;;5094736;28;20288;-80
2023/05/25 08:16:56;;;;;;;7.43;4.50;;;14.40;99.90;;;;;;5077019;28;20212;-81
2023/05/25 08:19:22;;;;;;;7.53;4.10;;;14.40;1.00;;;;;;5094320;28;20199;-81
2023/05/25 08:21:47;;;;;;;6.43;4.40;;;14.60;1.00;;;;;;5094791;28;20176;-80
2023/05/25 08:24:13;;;;;;;8.47;4.57;;;14.70;99.90;;;;;;5076991;28;20230;-81
2023/05/25 08:26:40;;;;;;;7.10;4.70;;;14.80;15.30;;;;;;5076983;28;20208;-80
2023/05/25 08:29:05;;;;;;;7.37;4.50;;;14.90;39.50;;;;;;5094341;28;20171;-81
2023/05/25 08:31:31;;;;;;;8.13;4.57;;;14.90;1.00;;;;;;5093903;28;20176;-81
2023/05/25 08:33:58;;;;;;;5.37;4.10;;;15.10;99.90;;;;;;5079963;28;20225;-80
2023/05/25 08:36:25;;;;;;;7.57;4.70;;;15.30;99.90;;;;;;5074303;28;20169;-80
2023/05/25 08:38:50;;;;;;;6.03;3.97;;;15.20;1.00;;;;;;5074891;28;20614;-80
2023/05/25 08:41:18;;;;;;;6.40;4.50;;;15.30;99.90;;;;;;5056045;28;20675;-81
2023/05/25 08:43:44;;;;;;;8.90;4.93;;;15.40;99.90;;;;;;5074275;28;20169;-81
2023/05/25 08:46:10;;;;;;;6.87;4.00;;;15.60;99.90;;;;;;5054636;28;20234;-83
2023/05/25 08:48:37;;;;;;;6.33;4.17;;;15.70;1.00;;;;;;5054387;28;20232;-83
2023/05/25 08:51:07;;;;;;;7.67;3.93;;;15.80;1.00;;;;;;5073112;28;20276;-80
2023/05/25 08:53:38;;;;;;;5.97;4.10;;;15.90;1.00;;;;;;5055001;28;20176;-83
2023/05/25 08:56:17;;;;;;;6.80;3.50;;;16.10;99.90;;;;;;5054660;28;20260;-82
2023/05/25 08:58:51;;;;;;;6.07;3.80;;;16.40;99.90;;;;;;5054828;28;20173;-85
2023/05/25 09:01:18;;;;;;;6.60;3.80;;;16.70;1.00;;;;;;5054836;28;20224;-83
2023/05/25 09:03:45;;;;;;;5.97;3.97;;;16.70;1.00;;;;;;5056637;28;20177;-81
2023/05/25 09:06:11;;;;;;;7.67;3.70;;;16.60;99.90;;;;;;5055055;28;20188;-82
2023/05/25 09:08:38;;;;;;;5.23;3.80;;;16.70;99.90;;;;;;5055711;28;20200;-82
2023/05/25 09:11:06;;;;;;;7.07;4.30;;;16.70;1.00;;;;;;5073488;28;20197;-81
2023/05/25 09:13:31;;;;;;;7.03;4.03;;;16.80;1.00;;;;;;5055472;28;20566;-83
2023/05/25 09:15:58;;;;;;;7.27;4.20;;;16.90;99.90;;;;;;5073310;28;20173;-81
2023/05/25 09:18:23;;;;;;;5.33;3.87;;;17.10;1.00;;;;;;5057239;28;20177;-82
2023/05/25 09:20:49;;;;;;;7.47;3.60;;;17.30;99.90;;;;;;5074652;28;20223;-82
2023/05/25 09:23:15;;;;;;;6.90;4.10;;;17.30;1.00;;;;;;5079621;28;20180;-83
2023/05/25 09:25:41;;;;;;;6.10;3.90;;;17.40;1.00;;;;;;5060052;28;20212;-84
2023/05/25 09:28:09;;;;;;;6.13;3.70;;;17.70;1.00;;;;;;5058578;28;20250;-83
2023/05/25 09:30:35;;;;;;;5.03;3.77;;;17.70;99.90;;;;;;5074880;28;20238;-83
2023/05/25 09:33:10;;;;;;;6.00;3.87;;;17.70;1.00;;;;;;5076032;28;20169;-82
2023/05/25 09:35:36;;;;;;;6.23;3.10;;;17.70;99.90;;;;;;5058030;28;20572;-83
2023/05/25 09:38:02;;;;;;;9.17;3.90;;;17.90;99.90;;;;;;5057942;28;20238;-82
2023/05/25 09:40:28;;;;;;;4.50;3.60;;;17.90;99.90;;;;;;5057006;28;20189;-83
2023/05/25 09:42:56;;;;;;;6.20;3.70;;;17.90;99.50;;;;;;5075717;28;20173;-82
2023/05/25 09:45:22;;;;;;;8.13;3.90;;;18.00;99.90;;;;;;5076478;28;20255;-81
2023/05/25 09:47:47;;;;;;;6.83;3.27;;;18.20;99.90;;;;;;5058548;28;20303;-83
2023/05/25 09:50:13;;;;;;;5.37;3.13;;;18.20;1.00;;;;;;5057934;28;20189;-82
2023/05/25 09:52:40;;;;;;;5.43;3.00;;;18.30;1.00;;;;;;5058081;28;20587;-82
2023/05/25 09:55:09;;;;;;;5.80;3.60;;;18.20;1.00;;;;;;5057807;28;20574;-80
2023/05/25 09:57:35;;;;;;;4.70;3.13;;;18.30;99.90;;;;;;5075886;28;20173;-82
2023/05/25 10:00:04;;;;;;;5.30;3.20;;;18.30;1.00;;;;;;5057438;28;20255;-83
2023/05/25 10:02:29;;;;;;;5.63;3.03;;;18.40;1.00;;;;;;5075382;28;20693;-83
2023/05/25 10:04:55;;;;;;;5.10;3.20;;;18.60;1.00;;;;;;5057733;28;20169;-82
2023/05/25 10:07:21;;;;;;;4.73;3.10;;;18.50;99.90;;;;;;5060765;28;20211;-82
2023/05/25 10:09:50;;;;;;;7.17;3.17;;;18.50;99.90;;;;;;5077453;28;20216;-82
2023/05/25 10:12:19;;;;;;;7.80;3.13;;;18.80;1.00;;;;;;5057925;28;20169;-82
2023/05/25 10:14:46;;;;;;;4.93;3.20;;;18.70;99.90;;;;;;5057693;28;20612;-82
2023/05/25 10:17:15;;;;;;;5.37;3.17;;;18.80;99.90;;;;;;5074933;28;20180;-83
2023/05/25 10:19:54;;;;;;;4.87;3.13;;;18.90;99.90;;;;;;5074046;28;20250;-85
2023/05/25 10:22:38;;;;;;;6.03;3.47;;;19.00;99.90;;;;;;5074350;28;20205;-84
2023/05/25 10:25:15;;;;;;;4.50;3.27;;;19.30;99.90;;;;;;5056378;28;20177;-84
2023/05/25 10:27:46;;;;;;;4.83;3.10;;;19.40;99.90;;;;;;5057195;28;20240;-82
2023/05/25 10:30:13;;;;;;;6.87;3.50;;;19.30;99.90;;;;;;5074574;28;20618;-82
2023/05/25 10:32:39;;;;;;;5.87;3.33;;;19.70;99.90;;;;;;5055516;28;20205;-85
2023/05/25 10:35:06;;;;;;;5.10;3.07;;;19.70;99.90;;;;;;5056826;28;20190;-82
2023/05/25 10:37:33;;;;;;;6.10;3.90;;;19.90;99.90;;;;;;5056946;28;20678;-82
2023/05/25 10:40:00;;;;;;;5.97;3.57;;;20.00;99.90;;;;;;5056774;28;20331;-83
2023/05/25 10:42:26;;;;;;;5.37;3.50;;;20.00;99.90;;;;;;5076187;28;20169;-81
2023/05/25 10:44:53;;;;;;;6.13;3.80;;;20.00;99.90;;;;;;5076207;28;20165;-82
2023/05/25 10:47:19;;;;;;;5.20;3.30;;;20.30;99.90;;;;;;5058123;28;20201;-81
2023/05/25 10:49:53;;;;;;;4.30;3.23;;;20.70;99.90;;;;;;5057782;28;20238;-81
2023/05/25 10:52:20;;;;;;;6.50;3.53;;;20.50;99.90;;;;;;5058455;28;20230;-81
2023/05/25 10:54:47;;;;;;;4.50;3.27;;;20.40;99.90;;;;;;5058644;28;20249;-80
2023/05/25 10:57:20;;;;;;;7.63;3.57;;;20.40;99.90;;;;;;5076022;28;20169;-82
2023/05/25 10:59:50;;;;;;;7.63;4.00;;;20.50;99.90;;;;;;5059279;28;20189;-84
2023/05/25 11:02:21;;;;;;;5.83;3.73;;;20.50;99.90;;;;;;5055640;28;20169;-84
2023/05/25 11:04:48;;;;;;;6.75;3.83;;;20.90;99.90;;;;;;5055978;28;20168;-84
2023/05/25 11:07:15;;;;;;;6.28;3.88;;;21.20;99.90;;;;;;5055615;28;20197;-84
2023/05/25 11:09:43;;;;;;;7.20;3.75;;;21.30;1.60;;;;;;5072968;28;20266;-84
2023/05/25 11:12:19;;;;;;;6.70;3.38;;;21.40;44.80;;;;;;5055529;28;20177;-84
2023/05/25 11:15:14;;;;;;;4.95;3.63;;;21.10;1.00;;;;;;5048834;28;20644;-84
2023/05/25 11:18:01;;;;;;;4.45;3.20;;;20.90;1.00;;;;;;5055585;28;20177;-84
2023/05/25 11:20:28;;;;;;;5.47;3.33;;;20.90;1.00;;;;;;5055318;28;20262;-85
2023/05/25 11:22:56;;;;;;;6.55;3.58;;;21.10;1.00;;;;;;5073681;28;20193;-84
2023/05/25 11:25:42;;;;;;;5.28;3.38;;;21.30;1.00;;;;;;5055461;28;20184;-84
2023/05/25 11:28:10;;;;;;;5.43;3.40;;;21.30;2.80;;;;;;5069267;28;20270;-83
2023/05/25 11:30:38;;;;;;;5.70;3.47;;;21.40;1.00;;;;;;5052791;28;20208;-86
2023/05/25 11:33:06;;;;;;;7.45;3.53;;;21.70;1.00;;;;;;5052158;28;20170;-84
2023/05/25 11:35:32;;;;;;;5.35;3.40;;;21.40;1.00;;;;;;5054945;28;20173;-81
2023/05/25 11:37:59;;;;;;;5.32;3.53;;;21.60;1.00;;;;;;5055398;28;20178;-83
2023/05/25 11:40:28;;;;;;;5.88;3.47;;;21.40;1.00;;;;;;5054770;28;20193;-81
2023/05/25 11:42:55;;;;;;;6.80;4.13;;;21.30;1.00;;;;;;5067833;28;20181;-81
2023/05/25 11:45:21;;;;;;;5.70;3.47;;;21.40;1.00;;;;;;5056965;28;20188;-81
2023/05/25 11:47:47;;;;;;;7.05;3.88;;;21.80;1.00;;;;;;5074745;28;20196;-81
2023/05/25 11:50:16;;;;;;;6.63;3.65;;;21.90;1.00;;;;;;5055933;28;20238;-84
2023/05/25 11:52:41;;;;;;;8.35;3.85;;;21.70;1.00;;;;;;5072698;28;20195;-83
2023/05/25 11:55:13;;;;;;;6.88;3.58;;;21.80;1.00;;;;;;5072507;28;20169;-83
2023/05/25 11:57:39;;;;;;;5.68;3.70;;;21.90;1.00;;;;;;5055146;28;20256;-84
2023/05/25 12:00:05;;;;;;;5.40;3.72;;;22.10;1.00;;;;;;5073065;28;20199;-82
2023/05/25 12:02:37;;;;;;;4.35;3.42;;;22.20;1.00;;;;;;5075231;28;20177;-81
2023/05/25 12:05:03;;;;;;;5.50;3.30;;;22.10;1.00;;;;;;5075372;28;20156;-81
2023/05/25 12:07:30;;;;;;;6.60;3.60;;;22.50;1.00;;;;;;5074600;28;20212;-81
2023/05/25 12:10:07;;;;;;;6.15;3.92;;;22.80;1.00;;;;;;5075360;28;20238;-82
2023/05/25 12:12:44;;;;;;;6.30;3.90;;;22.80;1.00;;;;;;5056971;28;20168;-81
2023/05/25 12:15:12;;;;;;;4.53;3.13;;;22.70;1.00;;;;;;5074650;28;20229;-81
2023/05/25 12:17:43;;;;;;;4.65;3.50;;;22.90;1.00;;;;;;5056610;28;20169;-81
2023/05/25 12:20:11;;;;;;;5.63;3.50;;;23.30;1.00;;;;;;5074227;28;20192;-81
2023/05/25 12:22:38;;;;;;;4.60;3.30;;;23.30;1.00;;;;;;5074390;28;20191;-81
2023/05/25 12:25:09;;;;;;;6.13;3.63;;;22.50;1.00;;;;;;5074678;28;20623;-81
2023/05/25 12:27:35;;;;;;;4.47;3.30;;;22.80;1.00;;;;;;5056227;28;20201;-81
2023/05/25 12:30:01;;;;;;;5.15;3.47;;;23.20;1.00;;;;;;5073698;28;20193;-81
2023/05/25 12:32:27;;;;;;;5.03;3.58;;;23.20;1.00;;;;;;5074605;28;20211;-81
2023/05/25 12:35:04;;;;;;;5.05;3.55;;;23.30;1.00;;;;;;5075012;28;20171;-81
2023/05/25 12:37:30;;;;;;;6.50;3.60;;;23.10;1.00;;;;;;5055695;28;20181;-81
2023/05/25 12:39:56;;;;;;;3.53;2.90;;;23.20;1.00;;;;;;5074028;28;20207;-81
2023/05/25 12:42:25;;;;;;;4.72;3.25;;;22.70;1.00;;;;;;5073662;28;20239;-81
2023/05/25 12:44:56;;;;;;;6.32;3.70;;;23.10;1.00;;;;;;5055819;28;20264;-82
2023/05/25 12:47:23;;;;;;;5.85;3.90;;;23.30;1.00;;;;;;5056453;28;20234;-81
2023/05/25 12:49:50;;;;;;;4.38;3.50;;;23.50;1.00;;;;;;5073826;28;20188;-81
2023/05/25 12:52:38;;;;;;;4.00;3.22;;;23.80;1.00;;;;;;5074315;28;20248;-81
2023/05/25 12:55:28;;;;;;;5.88;4.15;;;23.70;1.00;;;;;;5074243;28;20165;-82
2023/05/25 12:57:56;;;;;;;5.88;3.47;;;23.60;1.00;;;;;;5077488;28;20172;-80